Scroll down
FLIGHT INFORMATION
Malaysia Airlines

MAS166

At Arrival Gate

RJAA
 KSEA
DATE: 2018-11-11
GATE:  -
GATE DEPARTURE: 03:04
TAKEOFF: 03:16
DATE: 2018-11-11
GATE:  -
LANDING: 12:10
GATE ARRIVAL: 12:18
FLIGHT DATA
Crew: 
Speed: 
936 kph
Altitude: 
39,008 ft
Stage Length: 
7,655.7 km
Block Time: 
9.2 hrs
Flight Time: 
8.9 hrs
Fuel Used: 
91,174 kg
Cleared Route: 
TRACK DATA
50,000 ft 1,000 kts
AIRCRAFT INFO AND CUMULATIVE STATS
Aircraft Type: 
B744
Registration: 
SELCAL: 
CJDR
MSN/LN: 
27672 / 1091
Operator: 
Total Flights: 
8
Total Block Time: 
46.6 hrs
Total Flight Time: 
44 hrs
Total Fuel Used: 
539,122 kg
DATALINK LOG | Newest first | Current as of: 2023-02-06 04:18:46
LABEL SEQUENCE CONTENT Dn/Up
QD183612:18 36.1▼ Dn
QC105512:10▼ Dn
GA1150ADVANCED GATE ASSIGNMENTS NOT YET AVAILABLE AT THIS AIRPORT▲ Up
GR5325KSEA 12:07▼ Dn
5U1134KSEA 110304Z 1103/1206 03006KT P6SM SKC TEMPO 1110/1113 3SM BR SCT003 FM111300 03006KT 2SM BR BKN003 TEMPO 1113/1117 1/2SM FG VV002 FM111800 03006KT P6SM SCT250▲ Up
5S5226KSEA▼ Dn
465042/OV XXX /TM 0950 /FL350 /TP B744 /TA -24 /RM NONE▼ Dn
5U3229KSEA 110304Z 1103/1206 03006KT P6SM SKC TEMPO 1110/1113 3SM BR SCT003 FM111300 03006KT 2SM BR BKN003 TEMPO 1113/1117 1/2SM FG VV002 FM111800 03006KT P6SM SCT250▲ Up
5S3814KSEA▼ Dn
2U3228RJAA 110300Z VRB02KT 9999 FEW020 BKN070 18/08 Q1020 BECMG 09005KT▲ Up
2U3228KSEA 110253Z 03006KT 10SM CLR 07/03 A3041 RMK AO2 SLP307 T00720033 53005▲ Up
2S3806RJAA KSEA▼ Dn
QB165103:16▼ Dn
QA043703:04 237.1▼ Dn


AIRCRAFT HISTORY
FLIGHT DATE FLIGHT NO. ORIGIN DESTINATION CLEARED ROUTE BLOCK TIME FLIGHT TIME FUEL USED PILOT
2018-11-12MAS8686KSEA KSEA 1.6 hrs1.5 hrs35,223 lbJhan Jensen
2018-11-11MAS166RJAA KSEA 9.2 hrs8.9 hrs201,004 lbJhan Jensen
2018-11-03MAS1WSSS RJAA IBIXU IBIVA DONDI DIVSA BTM DOGRA RUVIK HOSBA TOMAN VERIN LUSMO AKMON UDOSI ALDAS AGSAM ANOKI ARESI AKOTA AVMUP ALDIS ABVAR MEVIN MAGMA SADEK KAZIK AMMEK AZAMA TAMAK SHIBK YULIA NIKAI JERID MISAK BUNGU BAFFY CHEVY SYOYU ANGEL BINKS NR21C AF010 AF011 AF012 WEBBS NRE13 AF001 AF002 AF003 LAKES6.7 hrs6.5 hrs219,002 lbJhan Jensen
2018-10-27MAS172WMKK WSSS 0.9 hrs0.7 hrs21,258 lbJhan Jensen
2018-09-29MAS101PHNL WMKK 11.7 hrs11.4 hrs309,607 lbJhan Jensen
2018-09-03MAS100KSLC PHNL 5.9 hrs5.7 hrs131,351 lbJhan Jensen
2018-08-26MAS1EGLL KSLC 9.4 hrs9 hrs252,998 lbJhan Jensen
2018-08-25MAS999EGBP EGLL 1.1 hrs0.4 hrs18,117 lbJhan Jensen